createdAt,value
2018-09-06T00:01:21.867Z,19.01
2018-09-06T00:03:52.188Z,19.05
2018-09-06T00:06:23.146Z,19.05
2018-09-06T00:08:53.517Z,18.92
2018-09-06T00:11:24.016Z,18.94
2018-09-06T00:13:53.927Z,18.93
2018-09-06T00:16:24.095Z,18.86
2018-09-06T00:18:53.895Z,18.89
2018-09-06T00:21:25.132Z,18.96
2018-09-06T00:23:55.270Z,18.91
2018-09-06T00:26:29.579Z,18.83
2018-09-06T00:28:59.751Z,18.78
2018-09-06T00:31:34.520Z,18.77
2018-09-06T00:34:05.455Z,18.74
2018-09-06T00:36:37.161Z,18.74
2018-09-06T00:39:09.664Z,18.73
2018-09-06T00:41:42.085Z,18.79
2018-09-06T00:44:12.180Z,18.76
2018-09-06T00:46:44.094Z,18.72
2018-09-06T00:49:15.377Z,18.71
2018-09-06T00:51:48.218Z,18.84
2018-09-06T00:54:19.344Z,18.74
2018-09-06T00:56:49.153Z,18.63
2018-09-06T00:59:22.844Z,18.60
2018-09-06T01:01:52.759Z,18.79
2018-09-06T01:04:23.426Z,18.86
2018-09-06T01:06:53.378Z,18.79
2018-09-06T01:09:23.644Z,18.76
2018-09-06T01:11:55.759Z,18.80
2018-09-06T01:14:27.934Z,18.84
2018-09-06T01:16:58.984Z,18.79
2018-09-06T01:19:29.133Z,18.88
2018-09-06T01:21:59.367Z,18.90
2018-09-06T01:24:29.548Z,19.03
2018-09-06T01:26:59.812Z,19.03
2018-09-06T01:29:29.840Z,18.99
2018-09-06T01:32:01.145Z,19.03
2018-09-06T01:34:31.447Z,19.05
2018-09-06T01:37:06.649Z,19.10
2018-09-06T01:39:37.363Z,19.18
2018-09-06T01:42:09.037Z,19.29
2018-09-06T01:44:41.724Z,19.38
2018-09-06T01:47:12.873Z,19.44
2018-09-06T01:49:43.186Z,19.29
2018-09-06T01:52:13.071Z,19.28
2018-09-06T01:54:42.842Z,19.28
2018-09-06T01:57:12.596Z,19.24
2018-09-06T01:59:42.362Z,19.10
2018-09-06T02:02:12.051Z,19.01
2018-09-06T02:04:41.948Z,19.06
2018-09-06T02:07:11.757Z,19.06
2018-09-06T02:09:42.009Z,18.90
2018-09-06T02:12:12.456Z,18.78
2018-09-06T02:14:43.912Z,18.88
2018-09-06T02:17:15.798Z,18.67
2018-09-06T02:19:45.501Z,18.48
2018-09-06T02:22:15.270Z,18.58
2018-09-06T02:24:45.555Z,18.45
2018-09-06T02:27:15.351Z,18.43
2018-09-06T02:29:45.087Z,18.43
2018-09-06T02:32:14.877Z,18.42
2018-09-06T02:34:44.581Z,18.40
2018-09-06T02:37:14.277Z,18.52
2018-09-06T02:39:44.094Z,18.53
2018-09-06T02:42:13.839Z,18.50
2018-09-06T02:44:43.646Z,18.55
2018-09-06T02:47:13.345Z,18.45
2018-09-06T02:49:48.230Z,18.41
2018-09-06T02:52:20.190Z,18.44
2018-09-06T02:54:49.919Z,18.37
2018-09-06T02:57:21.017Z,18.38
2018-09-06T02:59:50.725Z,18.31
2018-09-06T03:02:20.445Z,18.01
2018-09-06T03:04:51.136Z,17.97
2018-09-06T03:07:21.414Z,17.89
2018-09-06T03:09:54.393Z,17.82
2018-09-06T03:12:25.476Z,17.93
2018-09-06T03:14:55.729Z,17.88
2018-09-06T03:17:27.107Z,17.93
2018-09-06T03:19:57.262Z,18.00
2018-09-06T03:22:27.531Z,18.05
2018-09-06T03:24:57.695Z,18.09
2018-09-06T03:27:27.752Z,17.63
2018-09-06T03:29:57.972Z,18.08
2018-09-06T03:32:29.697Z,17.87
2018-09-06T03:34:59.880Z,17.85
2018-09-06T03:37:30.023Z,17.92
2018-09-06T03:40:00.373Z,17.92
2018-09-06T03:42:30.593Z,17.84
2018-09-06T03:45:00.858Z,17.82
2018-09-06T03:47:31.126Z,17.89
2018-09-06T03:50:01.423Z,17.89
2018-09-06T03:52:32.751Z,17.85
2018-09-06T03:55:03.235Z,17.85
2018-09-06T03:57:34.423Z,17.87
2018-09-06T04:00:04.940Z,17.82
2018-09-06T04:02:35.062Z,17.92
2018-09-06T04:05:05.255Z,17.87
2018-09-06T04:07:35.524Z,17.86
2018-09-06T04:10:07.595Z,17.94
2018-09-06T04:12:39.266Z,17.90
2018-09-06T04:15:10.007Z,17.96
2018-09-06T04:17:41.585Z,17.94
2018-09-06T04:20:11.960Z,17.99
2018-09-06T04:22:45.845Z,18.07
2018-09-06T04:25:16.819Z,18.08
2018-09-06T04:27:47.320Z,18.18
2018-09-06T04:30:17.944Z,18.26
2018-09-06T04:32:48.439Z,18.38
2018-09-06T04:35:18.942Z,18.54
2018-09-06T04:37:51.201Z,18.71
2018-09-06T04:40:22.119Z,18.96
2018-09-06T04:42:52.484Z,19.11
2018-09-06T04:45:22.574Z,19.04
2018-09-06T04:47:52.806Z,19.13
2018-09-06T04:50:23.323Z,19.05
2018-09-06T04:52:55.998Z,19.25
2018-09-06T04:55:26.188Z,19.22
2018-09-06T04:57:56.415Z,19.13
2018-09-06T05:00:26.368Z,19.23
2018-09-06T05:02:57.585Z,19.29
2018-09-06T05:05:27.770Z,19.38
2018-09-06T05:07:58.520Z,19.15
2018-09-06T05:10:28.739Z,19.18
2018-09-06T05:12:58.937Z,19.29
2018-09-06T05:15:29.088Z,19.27
2018-09-06T05:17:59.261Z,19.43
2018-09-06T05:20:30.354Z,19.48
2018-09-06T05:23:01.251Z,19.46
2018-09-06T05:25:31.568Z,19.57
2018-09-06T05:28:01.583Z,19.30
2018-09-06T05:30:32.407Z,19.44
2018-09-06T05:33:03.198Z,19.67
2018-09-06T05:35:34.726Z,19.81
2018-09-06T05:38:04.955Z,19.84
2018-09-06T05:40:34.983Z,19.86
2018-09-06T05:43:06.542Z,19.93
2018-09-06T05:45:36.555Z,20.19
2018-09-06T05:48:09.135Z,20.37
2018-09-06T05:50:40.085Z,20.06
2018-09-06T05:53:10.681Z,20.25
2018-09-06T05:55:41.210Z,20.44
2018-09-06T05:58:11.660Z,20.36
2018-09-06T06:00:44.825Z,20.38
2018-09-06T06:03:16.144Z,20.67
2018-09-06T06:05:46.760Z,20.80
2018-09-06T06:08:27.680Z,20.89
2018-09-06T06:10:57.981Z,20.77
2018-09-06T06:13:30.222Z,20.73
2018-09-06T06:16:01.074Z,20.86
2018-09-06T06:18:32.044Z,21.09
2018-09-06T06:21:03.004Z,21.22
2018-09-06T06:23:33.583Z,21.28
2018-09-06T06:26:04.146Z,21.38
2018-09-06T06:28:34.960Z,21.40
2018-09-06T06:31:05.209Z,21.18
2018-09-06T06:33:35.680Z,21.28
2018-09-06T06:36:05.888Z,21.35
2018-09-06T06:38:36.143Z,22.03
2018-09-06T06:41:06.389Z,23.74
2018-09-06T06:43:37.062Z,26.46
2018-09-06T06:46:07.187Z,26.62
2018-09-06T06:48:37.504Z,27.80
2018-09-06T06:51:08.577Z,28.37
2018-09-06T06:53:38.723Z,29.36
2018-09-06T06:56:10.048Z,28.54
2018-09-06T06:58:41.995Z,27.46
2018-09-06T07:01:12.381Z,28.08
2018-09-06T07:03:42.605Z,28.48
2018-09-06T07:06:13.031Z,29.04
2018-09-06T07:08:43.428Z,28.72
2018-09-06T07:11:13.904Z,29.78
2018-09-06T07:13:43.963Z,28.48
2018-09-06T07:16:14.279Z,27.06
2018-09-06T07:18:44.768Z,26.33
2018-09-06T07:21:14.901Z,25.75
2018-09-06T07:23:45.292Z,25.08
2018-09-06T07:26:15.577Z,25.03
2018-09-06T07:28:45.652Z,24.85
2018-09-06T07:31:15.832Z,24.74
2018-09-06T07:33:46.888Z,24.75
2018-09-06T07:36:17.114Z,24.58
2018-09-06T07:38:47.294Z,24.68
2018-09-06T07:41:17.990Z,24.61
2018-09-06T07:43:49.062Z,23.84
2018-09-06T07:46:19.334Z,23.86
2018-09-06T07:48:49.375Z,23.85
2018-09-06T07:51:20.430Z,23.66
2018-09-06T07:53:52.245Z,23.55
2018-09-06T07:56:23.266Z,23.42
2018-09-06T07:58:53.716Z,23.58
2018-09-06T08:01:24.330Z,23.51
2018-09-06T08:03:54.734Z,23.51
2018-09-06T08:06:25.000Z,23.44
2018-09-06T08:08:57.288Z,23.34
2018-09-06T08:11:27.535Z,23.25
2018-09-06T08:13:57.570Z,23.51
2018-09-06T08:16:27.743Z,23.54
2018-09-06T08:18:58.835Z,23.49
2018-09-06T08:21:29.059Z,23.71
2018-09-06T08:23:59.258Z,23.66
2018-09-06T08:26:29.551Z,23.77
2018-09-06T08:28:59.817Z,23.94
2018-09-06T08:31:31.194Z,24.13
2018-09-06T08:34:01.518Z,24.39
2018-09-06T08:36:32.283Z,24.46
2018-09-06T08:39:03.405Z,24.19
2018-09-06T08:41:33.512Z,24.10
2018-09-06T08:44:03.776Z,24.14
2018-09-06T08:46:33.806Z,24.26
2018-09-06T08:49:04.798Z,24.25
2018-09-06T08:51:35.018Z,24.54
2018-09-06T08:54:06.062Z,24.74
2018-09-06T08:56:36.367Z,24.37
2018-09-06T08:59:06.711Z,24.34
2018-09-06T09:01:42.427Z,24.18
2018-09-06T09:04:12.688Z,24.55
2018-09-06T09:06:42.836Z,24.76
2018-09-06T09:09:15.267Z,24.69
2018-09-06T09:11:45.779Z,24.46
2018-09-06T09:14:17.220Z,24.45
2018-09-06T09:16:48.422Z,24.64
2018-09-06T09:19:18.686Z,24.56
2018-09-06T09:21:49.180Z,24.75
2018-09-06T09:24:20.028Z,24.67
2018-09-06T09:26:51.268Z,24.41
2018-09-06T09:29:22.253Z,24.58
2018-09-06T09:31:52.721Z,24.84
2018-09-06T09:34:23.119Z,25.04
2018-09-06T09:36:53.677Z,24.90
2018-09-06T09:39:27.023Z,25.07
2018-09-06T09:41:57.456Z,24.78
2018-09-06T09:44:28.908Z,24.52
2018-09-06T09:49:31.550Z,25.18
2018-09-06T09:52:01.817Z,25.20
2018-09-06T09:54:33.636Z,25.11
2018-09-06T09:57:04.236Z,25.01
2018-09-06T09:59:35.957Z,24.93
2018-09-06T10:02:11.158Z,25.07
2018-09-06T10:05:46.518Z,25.22
2018-09-06T10:08:21.661Z,25.21
2018-09-06T10:10:52.711Z,25.15
2018-09-06T10:13:23.202Z,25.13
2018-09-06T10:15:53.974Z,24.88
2018-09-06T10:18:24.484Z,25.06
2018-09-06T10:20:54.875Z,25.21
2018-09-06T10:23:25.296Z,25.32
2018-09-06T10:25:56.191Z,25.41
2018-09-06T10:28:26.879Z,25.19
2018-09-06T10:30:57.372Z,25.19
2018-09-06T10:33:27.965Z,25.31
2018-09-06T10:35:58.523Z,25.19
2018-09-06T10:38:30.340Z,24.91
2018-09-06T10:41:01.068Z,24.82
2018-09-06T10:43:31.264Z,24.72
2018-09-06T10:46:01.886Z,24.82
2018-09-06T10:48:32.172Z,24.72
2018-09-06T10:51:02.623Z,24.57
2018-09-06T10:53:33.594Z,24.67
2018-09-06T10:56:04.297Z,24.98
2018-09-06T10:58:35.198Z,25.44
2018-09-06T11:01:11.252Z,25.48
2018-09-06T11:03:41.858Z,25.74
2018-09-06T11:06:12.574Z,25.81
2018-09-06T11:13:33.856Z,26.44
2018-09-06T11:16:04.272Z,26.43
2018-09-06T11:18:34.429Z,26.17
2018-09-06T11:21:05.873Z,26.14
2018-09-06T11:23:36.327Z,26.40
2018-09-06T11:26:06.713Z,26.54
2018-09-06T11:28:36.931Z,27.01
2018-09-06T11:31:07.785Z,26.60
2018-09-06T11:33:38.301Z,26.28
2018-09-06T11:36:08.901Z,26.19
2018-09-06T11:38:39.525Z,26.22
2018-09-06T11:41:09.716Z,26.20
2018-09-06T11:43:41.951Z,26.12
2018-09-06T11:46:12.392Z,26.15
2018-09-06T11:48:43.591Z,26.00
2018-09-06T11:51:14.041Z,26.14
2018-09-06T11:53:44.324Z,26.53
2018-09-06T11:56:14.419Z,26.77
2018-09-06T11:58:45.144Z,26.51
2018-09-06T12:01:16.220Z,26.46
2018-09-06T12:03:46.889Z,26.39
2018-09-06T12:06:17.079Z,25.81
2018-09-06T12:08:51.419Z,25.81
2018-09-06T12:11:21.584Z,25.70
2018-09-06T12:13:52.123Z,25.62
2018-09-06T12:16:22.456Z,25.52
2018-09-06T12:18:52.965Z,25.55
2018-09-06T12:21:23.718Z,25.70
2018-09-06T12:23:55.002Z,25.70
2018-09-06T12:26:25.578Z,25.43
2018-09-06T12:28:56.107Z,25.34
2018-09-06T12:31:27.258Z,25.47
2018-09-06T12:33:57.858Z,25.52
2018-09-06T12:36:28.439Z,25.36
2018-09-06T12:38:59.378Z,25.54
2018-09-06T12:41:30.671Z,25.66
2018-09-06T12:44:03.920Z,25.83
2018-09-06T12:46:34.433Z,25.98
2018-09-06T12:49:04.750Z,25.79
2018-09-06T12:51:35.253Z,25.82
2018-09-06T12:54:05.680Z,25.71
2018-09-06T12:56:36.531Z,25.66
2018-09-06T12:59:07.635Z,25.55
2018-09-06T13:01:38.001Z,25.38
2018-09-06T13:04:08.744Z,25.46
2018-09-06T13:06:39.174Z,25.52
2018-09-06T13:09:10.723Z,25.56
2018-09-06T13:11:43.046Z,25.57
2018-09-06T13:14:14.977Z,25.88
2018-09-06T13:16:45.482Z,26.11
2018-09-06T13:19:17.427Z,26.26
2018-09-06T13:21:47.904Z,26.16
2018-09-06T13:24:18.310Z,26.29
2018-09-06T13:26:49.243Z,26.36
2018-09-06T13:29:19.531Z,26.31
2018-09-06T13:31:51.341Z,26.12
2018-09-06T13:34:21.517Z,26.03
2018-09-06T13:36:52.206Z,25.74
2018-09-06T13:39:22.766Z,25.63
2018-09-06T13:41:53.251Z,25.29
2018-09-06T13:44:23.736Z,25.01
2018-09-06T13:46:54.221Z,25.13
2018-09-06T13:49:25.489Z,25.29
2018-09-06T13:51:55.912Z,25.22
2018-09-06T13:54:26.295Z,25.26
2018-09-06T13:56:57.499Z,25.42
2018-09-06T13:59:27.981Z,25.34
2018-09-06T14:01:58.249Z,25.47
2018-09-06T14:04:28.787Z,25.51
2018-09-06T14:06:59.140Z,25.65
2018-09-06T14:09:29.686Z,25.73
2018-09-06T14:12:00.280Z,25.62
2018-09-06T14:14:32.641Z,25.65
2018-09-06T14:17:04.064Z,25.67
2018-09-06T14:19:35.640Z,25.63
2018-09-06T14:22:06.062Z,25.54
2018-09-06T14:24:36.562Z,25.48
2018-09-06T14:27:07.184Z,25.40
2018-09-06T14:29:38.187Z,25.36
2018-09-06T14:32:08.715Z,25.41
2018-09-06T14:34:40.008Z,25.36
2018-09-06T14:37:11.657Z,25.24
2018-09-06T14:39:42.776Z,25.13
2018-09-06T14:42:14.007Z,25.14
2018-09-06T14:44:44.959Z,25.04
2018-09-06T14:47:16.643Z,25.06
2018-09-06T14:49:47.473Z,25.04
2018-09-06T14:52:18.573Z,24.98
2018-09-06T14:54:49.664Z,24.93
2018-09-06T14:57:19.975Z,24.66
2018-09-06T14:59:51.901Z,24.54
2018-09-06T15:02:22.428Z,24.35
2018-09-06T15:04:53.384Z,24.30
2018-09-06T15:07:23.552Z,24.06
2018-09-06T15:09:53.999Z,23.82
2018-09-06T15:12:24.456Z,23.67
2018-09-06T15:14:54.906Z,23.51
2018-09-06T15:17:25.301Z,23.17
2018-09-06T15:19:57.678Z,22.98
2018-09-06T15:22:28.745Z,22.68
2018-09-06T15:24:59.886Z,22.54
2018-09-06T15:27:30.936Z,22.32
2018-09-06T15:30:01.503Z,22.39
2018-09-06T15:32:32.232Z,22.50
2018-09-06T15:35:03.439Z,22.45
2018-09-06T15:37:33.910Z,22.44
2018-09-06T15:40:04.721Z,22.44
2018-09-06T15:42:35.205Z,22.18
2018-09-06T15:45:06.352Z,22.29
2018-09-06T15:47:38.596Z,22.31
2018-09-06T15:50:09.726Z,22.33
2018-09-06T15:52:40.020Z,22.33
2018-09-06T15:55:12.285Z,22.29
2018-09-06T15:57:42.605Z,22.33
2018-09-06T16:00:13.288Z,22.24
2018-09-06T16:02:44.507Z,22.11
2018-09-06T16:05:15.785Z,22.15
2018-09-06T16:07:46.453Z,22.04
2018-09-06T16:10:18.613Z,21.98
2018-09-06T16:12:49.543Z,22.03
2018-09-06T16:15:20.106Z,22.01
2018-09-06T16:17:50.449Z,22.03
2018-09-06T16:20:20.881Z,22.14
2018-09-06T16:22:55.477Z,22.08
2018-09-06T16:25:26.680Z,22.15
2018-09-06T16:27:57.096Z,22.05
2018-09-06T16:30:28.115Z,22.06
2018-09-06T16:32:58.412Z,22.03
2018-09-06T16:35:29.409Z,21.94
2018-09-06T16:38:00.071Z,21.92
2018-09-06T16:40:37.731Z,21.93
2018-09-06T16:43:08.321Z,21.89
2018-09-06T16:45:39.625Z,21.84
2018-09-06T16:48:09.966Z,21.83
2018-09-06T16:50:41.236Z,21.87
2018-09-06T16:53:12.396Z,21.96
2018-09-06T16:55:42.825Z,21.94
2018-09-06T16:58:14.066Z,22.06
2018-09-06T17:00:44.733Z,22.13
2018-09-06T17:03:18.571Z,22.16
2018-09-06T17:05:49.070Z,22.15
2018-09-06T17:08:20.169Z,22.19
2018-09-06T17:10:50.390Z,22.24
2018-09-06T17:13:21.398Z,22.41
2018-09-06T17:15:54.043Z,22.35
2018-09-06T17:18:24.255Z,22.34
2018-09-06T17:20:54.746Z,22.33
2018-09-06T17:23:25.306Z,22.19
2018-09-06T17:25:55.625Z,22.18
2018-09-06T17:28:26.929Z,22.28
2018-09-06T17:30:58.488Z,22.28
2018-09-06T17:33:28.460Z,22.30
2018-09-06T17:35:59.498Z,22.36
2018-09-06T17:38:29.592Z,22.32
2018-09-06T17:40:59.929Z,22.39
2018-09-06T17:43:30.372Z,22.29
2018-09-06T17:46:02.325Z,22.34
2018-09-06T17:48:32.761Z,22.28
2018-09-06T17:51:02.951Z,22.28
2018-09-06T17:53:33.368Z,22.30
2018-09-06T17:56:04.348Z,22.26
2018-09-06T17:58:35.411Z,22.19
2018-09-06T18:01:44.491Z,22.15
2018-09-06T18:04:14.628Z,22.13
2018-09-06T18:06:44.954Z,22.03
2018-09-06T18:09:15.364Z,21.96
2018-09-06T18:11:45.619Z,21.85
2018-09-06T18:14:16.057Z,21.91
2018-09-06T18:16:47.026Z,21.89
2018-09-06T18:19:17.296Z,21.86
2018-09-06T18:21:47.437Z,21.88
2018-09-06T18:24:18.127Z,21.75
2018-09-06T18:26:48.450Z,21.52
2018-09-06T18:29:19.044Z,21.31
2018-09-06T18:31:49.683Z,21.37
2018-09-06T18:34:20.201Z,21.53
2018-09-06T18:36:50.392Z,21.52
2018-09-06T18:39:22.490Z,21.51
2018-09-06T18:41:53.686Z,21.47
2018-09-06T18:44:23.833Z,21.36
2018-09-06T18:46:54.068Z,21.32
2018-09-06T18:49:24.358Z,21.28
2018-09-06T18:51:54.931Z,21.25
2018-09-06T18:54:25.995Z,21.10
2018-09-06T18:56:56.245Z,20.99
2018-09-06T18:59:27.683Z,20.94
2018-09-06T19:01:58.126Z,20.93
2018-09-06T19:04:29.327Z,21.01
2018-09-06T19:06:59.455Z,21.05
2018-09-06T19:09:29.503Z,20.89
2018-09-06T19:12:00.600Z,20.83
2018-09-06T19:14:31.378Z,20.82
2018-09-06T19:17:02.948Z,20.78
2018-09-06T19:19:33.252Z,20.89
2018-09-06T19:22:03.572Z,21.01
2018-09-06T19:24:34.148Z,20.98
2018-09-06T19:27:04.320Z,21.06
2018-09-06T19:29:34.332Z,21.16
2018-09-06T19:32:04.756Z,21.04
2018-09-06T19:34:35.878Z,20.81
2018-09-06T19:37:06.208Z,20.84
2018-09-06T19:39:37.482Z,20.95
2018-09-06T19:42:19.338Z,21.01
2018-09-06T19:44:50.096Z,20.95
2018-09-06T19:47:22.252Z,20.94
2018-09-06T19:49:53.823Z,20.94
2018-09-06T19:52:25.014Z,20.93
2018-09-06T19:54:55.665Z,20.95
2018-09-06T19:57:28.158Z,20.98
2018-09-06T20:00:02.778Z,20.98
2018-09-06T20:02:39.390Z,20.98
2018-09-06T20:05:15.630Z,21.01
2018-09-06T20:07:46.802Z,20.93
2018-09-06T20:10:16.966Z,21.01
2018-09-06T20:12:48.538Z,20.86
2018-09-06T20:15:18.888Z,20.81
2018-09-06T20:17:51.228Z,20.78
2018-09-06T20:20:21.605Z,20.77
2018-09-06T20:22:52.156Z,20.67
2018-09-06T20:25:28.919Z,20.62
2018-09-06T20:27:59.413Z,20.60
2018-09-06T20:30:29.601Z,20.50
2018-09-06T20:33:01.920Z,20.49
2018-09-06T20:35:32.990Z,20.44
2018-09-06T20:38:03.265Z,20.41
2018-09-06T20:40:33.409Z,20.45
2018-09-06T20:43:03.813Z,20.41
2018-09-06T20:45:41.880Z,20.43
2018-09-06T20:48:12.420Z,20.45
2018-09-06T20:50:44.012Z,20.38
2018-09-06T20:53:30.920Z,20.40
2018-09-06T20:56:01.150Z,20.37
2018-09-06T20:58:31.549Z,20.43
2018-09-06T21:03:38.912Z,20.39
2018-09-06T21:06:14.313Z,20.36
2018-09-06T21:08:44.627Z,20.37
2018-09-06T21:11:17.089Z,20.35
2018-09-06T21:13:47.152Z,20.37
2018-09-06T21:16:17.423Z,20.40
2018-09-06T21:18:47.382Z,20.44
2018-09-06T21:21:17.600Z,20.36
2018-09-06T21:23:48.104Z,20.34
2018-09-06T21:26:18.476Z,20.38
2018-09-06T21:28:49.063Z,20.34
2018-09-06T21:31:19.043Z,20.29
2018-09-06T21:33:49.332Z,20.23
2018-09-06T21:36:20.462Z,20.23
2018-09-06T21:38:50.590Z,20.09
2018-09-06T21:41:20.689Z,20.08
2018-09-06T21:43:50.577Z,20.02
2018-09-06T21:46:21.126Z,20.08
2018-09-06T21:48:51.419Z,20.13
2018-09-06T21:51:21.667Z,20.19
2018-09-06T21:53:51.829Z,20.16
2018-09-06T21:56:22.201Z,20.14
2018-09-06T21:58:53.527Z,20.11
2018-09-06T22:01:26.152Z,20.01
2018-09-06T22:04:05.825Z,20.01
2018-09-06T22:06:37.737Z,20.09
2018-09-06T22:09:12.996Z,20.05
2018-09-06T22:11:43.799Z,20.03
2018-09-06T22:14:13.895Z,20.03
2018-09-06T22:16:45.353Z,20.05
2018-09-06T22:19:17.724Z,20.05
2018-09-06T22:21:48.275Z,20.05
2018-09-06T22:24:18.804Z,20.11
2018-09-06T22:26:49.717Z,20.03
2018-09-06T22:29:21.240Z,20.02
2018-09-06T22:38:41.727Z,19.79
2018-09-06T22:41:12.141Z,19.84
2018-09-06T22:43:43.123Z,19.84
2018-09-06T22:46:13.504Z,19.86
2018-09-06T22:48:45.298Z,19.76
2018-09-06T22:51:16.730Z,19.80
2018-09-06T22:53:47.406Z,19.75
2018-09-06T22:56:18.275Z,19.76
2018-09-06T22:58:49.602Z,19.76
2018-09-06T23:01:20.084Z,19.74
2018-09-06T23:03:54.297Z,19.73
2018-09-06T23:06:25.464Z,19.67
2018-09-06T23:08:56.529Z,19.67
2018-09-06T23:11:28.564Z,19.61
2018-09-06T23:13:59.827Z,19.56
2018-09-06T23:16:30.734Z,19.53
2018-09-06T23:19:03.337Z,19.51
2018-09-06T23:21:34.027Z,19.48
2018-09-06T23:24:04.696Z,19.44
2018-09-06T23:26:35.079Z,19.46
2018-09-06T23:29:07.788Z,19.38
2018-09-06T23:31:37.838Z,19.32
2018-09-06T23:34:07.846Z,19.25
2018-09-06T23:36:38.944Z,19.32
2018-09-06T23:39:10.428Z,19.24
2018-09-06T23:41:40.705Z,19.20
2018-09-06T23:44:10.786Z,19.20
2018-09-06T23:46:41.019Z,19.24
2018-09-06T23:49:11.416Z,19.19
2018-09-06T23:51:41.314Z,19.10
2018-09-06T23:54:12.255Z,19.15
2018-09-06T23:56:43.265Z,19.19
2018-09-06T23:59:16.494Z,19.11
